Time;durP1;ratioP1;P1;durP2;ratioP2;P2;SDS_P1;SDS_P2;PMS_P1;PMS_P2;Temp;Humidity;BMP_temperature;BMP_pressure;BME280_temperature;BME280_humidity;BME280_pressure;Samples;Min_cycle;Max_cycle;Signal;HPM_P1;HPM_P2
2021/10/01 00:01:42;;;;;;;1.70;1.00;;;;;;;;;;5018756;28;20276;-62
2021/10/01 00:04:07;;;;;;;2.42;1.40;;;;;;;;;;5018790;28;20026;-64
2021/10/01 00:06:33;;;;;;;3.17;1.13;;;;;;;;;;5018742;28;20040;-63
2021/10/01 00:09:01;;;;;;;1.23;1.07;;;;;;;;;;5018742;28;20025;-63
2021/10/01 00:11:26;;;;;;;1.38;1.00;;;;;;;;;;5018400;28;20285;-61
2021/10/01 00:13:51;;;;;;;2.50;1.00;;;;;;;;;;5018701;28;20488;-63
2021/10/01 00:16:26;;;;;;;2.58;1.17;;;;;;;;;;5018707;28;20256;-62
2021/10/01 00:18:54;;;;;;;1.42;0.80;;;;;;;;;;5017353;28;20018;-63
2021/10/01 00:21:19;;;;;;;1.70;1.33;;;;;;;;;;5018382;28;20508;-62
2021/10/01 00:23:44;;;;;;;3.20;1.20;;;;;;;;;;5018620;28;20026;-64
2021/10/01 00:26:16;;;;;;;2.63;1.10;;;;;;;;;;5017223;28;20265;-63
2021/10/01 00:28:47;;;;;;;1.30;0.90;;;;;;;;;;5027036;28;20285;-64
2021/10/01 00:31:16;;;;;;;3.90;1.20;;;;;;;;;;5014349;28;20029;-63
2021/10/01 00:33:41;;;;;;;2.30;1.17;;;;;;;;;;5013271;28;20056;-62
2021/10/01 00:36:06;;;;;;;2.03;1.20;;;;;;;;;;5017310;28;20569;-64
2021/10/01 00:38:33;;;;;;;2.93;1.23;;;;;;;;;;5018260;28;20265;-64
2021/10/01 00:40:59;;;;;;;1.73;1.30;;;;;;;;;;5033699;28;20273;-64
2021/10/01 00:43:36;;;;;;;2.03;1.25;;;;;;;;;;5033660;28;20076;-63
2021/10/01 00:48:45;;;;;;;3.40;1.15;;;;;;;;;;5015413;28;20033;-63
2021/10/01 00:51:11;;;;;;;1.40;1.30;;;;;;;;;;5015085;28;20026;-63
2021/10/01 00:53:40;;;;;;;1.60;1.40;;;;;;;;;;5030350;28;20348;-63
2021/10/01 00:56:05;;;;;;;1.92;1.20;;;;;;;;;;5015173;28;20045;-64
2021/10/01 00:58:30;;;;;;;3.17;1.30;;;;;;;;;;5015119;28;20091;-61
2021/10/01 01:03:30;;;;;;;2.83;1.42;;;;;;;;;;5014945;28;20072;-63
2021/10/01 01:06:19;;;;;;;3.47;1.30;;;;;;;;;;5013693;28;20424;-64
2021/10/01 01:09:03;;;;;;;2.35;1.63;;;;;;;;;;4995553;28;20397;-64
2021/10/01 01:11:51;;;;;;;4.05;1.67;;;;;;;;;;5014811;28;20077;-64
2021/10/01 01:14:19;;;;;;;2.45;1.23;;;;;;;;;;5014754;28;20030;-62
2021/10/01 01:16:45;;;;;;;1.30;1.20;;;;;;;;;;5014816;28;20018;-64
2021/10/01 01:19:29;;;;;;;6.07;1.10;;;;;;;;;;5029893;28;20044;-63
2021/10/01 01:22:13;;;;;;;1.63;1.40;;;;;;;;;;5015050;28;20050;-63
2021/10/01 01:25:01;;;;;;;3.45;1.35;;;;;;;;;;5014502;28;20025;-63
2021/10/01 01:27:33;;;;;;;7.45;1.40;;;;;;;;;;5014865;28;20032;-63
2021/10/01 01:30:02;;;;;;;1.50;1.20;;;;;;;;;;5019377;28;20052;-63
2021/10/01 01:32:32;;;;;;;2.97;1.35;;;;;;;;;;4994774;28;20027;-63
2021/10/01 01:35:13;;;;;;;2.75;1.33;;;;;;;;;;4994853;28;20019;-62
2021/10/01 01:37:56;;;;;;;1.75;1.00;;;;;;;;;;4994924;28;20397;-63
2021/10/01 01:40:29;;;;;;;1.38;1.10;;;;;;;;;;4994707;28;20022;-62
2021/10/01 01:42:57;;;;;;;;;;;;;;;;;;4995182;28;20065;-61
2021/10/01 01:45:23;;;;;;;1.92;1.20;;;;;;;;;;4994526;28;19944;-62
2021/10/01 01:47:52;;;;;;;1.08;0.90;;;;;;;;;;4994597;28;20018;-63
2021/10/01 01:50:18;;;;;;;2.95;1.20;;;;;;;;;;4993189;28;20385;-63
2021/10/01 01:52:44;;;;;;;5.15;1.58;;;;;;;;;;4994588;28;20025;-61
2021/10/01 01:55:09;;;;;;;1.73;1.17;;;;;;;;;;5009824;28;20018;-61
2021/10/01 01:57:38;;;;;;;1.13;1.00;;;;;;;;;;5008438;28;20026;-63
2021/10/01 02:00:06;;;;;;;2.60;1.15;;;;;;;;;;4994364;28;20351;-60
2021/10/01 02:02:33;;;;;;;1.15;1.02;;;;;;;;;;5009460;28;20029;-62
2021/10/01 02:04:58;;;;;;;2.17;1.33;;;;;;;;;;4994304;28;20089;-61
2021/10/01 02:07:24;;;;;;;3.05;1.20;;;;;;;;;;5009425;28;20061;-63
2021/10/01 02:09:56;;;;;;;2.55;1.20;;;;;;;;;;4994114;28;20461;-62
2021/10/01 02:12:29;;;;;;;1.70;1.40;;;;;;;;;;4993972;28;20018;-62
2021/10/01 02:14:56;;;;;;;2.33;1.27;;;;;;;;;;4994073;28;20027;-63
2021/10/01 02:17:25;;;;;;;1.67;1.13;;;;;;;;;;4994118;28;20022;-61
2021/10/01 02:19:51;;;;;;;2.42;1.58;;;;;;;;;;4994039;28;20023;-62
2021/10/01 02:22:20;;;;;;;3.05;1.50;;;;;;;;;;4993822;28;20092;-62
2021/10/01 02:24:46;;;;;;;2.35;1.45;;;;;;;;;;4993861;28;20081;-62
2021/10/01 02:27:29;;;;;;;2.35;1.77;;;;;;;;;;5001236;28;20057;-62
2021/10/01 02:30:05;;;;;;;1.98;1.48;;;;;;;;;;5003483;28;20094;-62
2021/10/01 02:32:30;;;;;;;2.17;1.40;;;;;;;;;;4993689;28;20030;-60
2021/10/01 02:34:56;;;;;;;2.38;1.77;;;;;;;;;;4993737;28;20497;-62
2021/10/01 02:37:27;;;;;;;1.73;1.33;;;;;;;;;;4993569;28;20025;-62
2021/10/01 02:39:55;;;;;;;2.33;1.60;;;;;;;;;;4993528;28;20029;-62
2021/10/01 02:42:24;;;;;;;2.17;1.60;;;;;;;;;;4993562;28;20026;-62
2021/10/01 02:44:50;;;;;;;1.85;1.20;;;;;;;;;;4993608;28;20026;-60
2021/10/01 02:47:15;;;;;;;2.22;1.20;;;;;;;;;;4993495;28;20018;-62
2021/10/01 02:49:41;;;;;;;3.10;1.40;;;;;;;;;;5008455;28;20073;-63
2021/10/01 02:52:14;;;;;;;2.75;1.40;;;;;;;;;;4993220;28;20033;-62
2021/10/01 02:54:49;;;;;;;2.72;1.77;;;;;;;;;;4993437;28;20482;-62
2021/10/01 02:57:17;;;;;;;2.28;1.92;;;;;;;;;;5001580;28;20092;-63
2021/10/01 02:59:44;;;;;;;4.95;1.60;;;;;;;;;;5028076;28;20029;-61
2021/10/01 03:02:13;;;;;;;2.50;1.60;;;;;;;;;;5028129;28;20022;-58
2021/10/01 03:04:46;;;;;;;1.83;1.55;;;;;;;;;;5012765;28;20543;-62
2021/10/01 03:07:13;;;;;;;1.98;1.60;;;;;;;;;;5011245;28;20084;-61
2021/10/01 03:09:39;;;;;;;2.63;1.58;;;;;;;;;;5012648;28;20017;-61
2021/10/01 03:12:11;;;;;;;2.85;1.67;;;;;;;;;;5012783;28;20500;-62
2021/10/01 03:14:37;;;;;;;3.00;1.90;;;;;;;;;;5011427;28;20025;-61
2021/10/01 03:17:06;;;;;;;2.50;1.75;;;;;;;;;;5012954;28;20551;-60
2021/10/01 03:19:33;;;;;;;2.78;1.88;;;;;;;;;;5012512;28;20396;-63
2021/10/01 03:21:58;;;;;;;2.00;1.80;;;;;;;;;;5012453;28;20049;-61
2021/10/01 03:24:24;;;;;;;4.78;2.08;;;;;;;;;;5027791;28;20401;-61
2021/10/01 03:26:52;;;;;;;3.05;2.08;;;;;;;;;;5012575;28;20061;-62
2021/10/01 03:29:19;;;;;;;2.15;1.73;;;;;;;;;;5006049;28;20030;-62
2021/10/01 03:31:45;;;;;;;6.93;2.00;;;;;;;;;;5007946;28;20019;-60
2021/10/01 03:34:10;;;;;;;1.65;1.50;;;;;;;;;;4992925;28;20022;-59
2021/10/01 03:36:38;;;;;;;3.50;2.00;;;;;;;;;;4992900;28;20015;-62
2021/10/01 03:39:10;;;;;;;2.60;1.83;;;;;;;;;;4992789;28;20019;-62
2021/10/01 03:41:36;;;;;;;4.33;1.73;;;;;;;;;;4992929;28;20026;-63
2021/10/01 03:44:01;;;;;;;2.20;1.80;;;;;;;;;;4991520;28;20018;-60
2021/10/01 03:46:29;;;;;;;2.67;1.90;;;;;;;;;;4992699;28;20035;-61
2021/10/01 03:48:57;;;;;;;2.67;1.80;;;;;;;;;;4992717;28;20277;-63
2021/10/01 03:51:23;;;;;;;2.53;1.45;;;;;;;;;;4991408;28;20049;-59
2021/10/01 03:53:49;;;;;;;3.22;1.80;;;;;;;;;;4992760;28;20018;-60
2021/10/01 03:56:17;;;;;;;4.13;2.05;;;;;;;;;;5007804;28;20113;-62
2021/10/01 03:58:46;;;;;;;2.42;1.75;;;;;;;;;;4992612;28;20026;-61
2021/10/01 04:01:11;;;;;;;2.95;1.73;;;;;;;;;;4992690;28;20034;-60
2021/10/01 04:03:37;;;;;;;2.50;2.00;;;;;;;;;;4992690;28;20026;-60
2021/10/01 04:06:05;;;;;;;2.90;1.50;;;;;;;;;;4992668;28;20069;-61
2021/10/01 04:08:31;;;;;;;2.22;1.77;;;;;;;;;;5007681;28;20098;-60
2021/10/01 04:10:56;;;;;;;2.90;1.70;;;;;;;;;;4992413;28;20031;-60
2021/10/01 04:13:21;;;;;;;2.00;1.65;;;;;;;;;;4992500;28;20373;-62
2021/10/01 04:15:46;;;;;;;2.00;1.65;;;;;;;;;;4992503;28;20010;-63
2021/10/01 04:18:12;;;;;;;2.00;1.40;;;;;;;;;;4991460;28;20125;-59
2021/10/01 04:20:40;;;;;;;3.43;1.60;;;;;;;;;;4994772;28;20110;-59
2021/10/01 04:23:05;;;;;;;4.82;1.70;;;;;;;;;;4996181;28;20301;-63
2021/10/01 04:25:33;;;;;;;1.70;1.50;;;;;;;;;;4996111;28;20366;-60
2021/10/01 04:27:58;;;;;;;2.17;1.50;;;;;;;;;;5008800;28;20265;-60
2021/10/01 04:30:24;;;;;;;2.27;1.73;;;;;;;;;;5001729;28;20033;-62
2021/10/01 04:33:00;;;;;;;3.05;1.65;;;;;;;;;;4996166;28;20302;-63
2021/10/01 04:35:28;;;;;;;4.13;1.65;;;;;;;;;;4996117;28;20026;-62
2021/10/01 04:37:53;;;;;;;2.60;1.52;;;;;;;;;;4994726;28;20027;-60
2021/10/01 04:40:20;;;;;;;2.45;1.98;;;;;;;;;;4995679;28;20025;-58
2021/10/01 04:42:48;;;;;;;2.92;1.85;;;;;;;;;;4995707;28;20029;-62
2021/10/01 04:45:14;;;;;;;3.33;1.40;;;;;;;;;;4995749;28;20030;-60
2021/10/01 04:47:39;;;;;;;6.63;1.40;;;;;;;;;;4995944;28;20026;-62
2021/10/01 04:50:05;;;;;;;1.75;1.63;;;;;;;;;;5010607;28;20250;-62
2021/10/01 04:52:30;;;;;;;3.65;1.40;;;;;;;;;;4995656;28;20030;-62
2021/10/01 04:54:55;;;;;;;5.28;1.60;;;;;;;;;;4995513;28;20038;-62
2021/10/01 04:57:23;;;;;;;3.30;1.77;;;;;;;;;;4995481;28;20560;-61
2021/10/01 04:59:54;;;;;;;5.70;1.80;;;;;;;;;;4995395;28;20033;-60
2021/10/01 05:02:20;;;;;;;3.90;2.08;;;;;;;;;;4995543;28;20023;-60
2021/10/01 05:04:45;;;;;;;3.40;1.63;;;;;;;;;;4995421;28;20033;-62
2021/10/01 05:07:12;;;;;;;3.15;1.90;;;;;;;;;;5010530;28;20105;-61
2021/10/01 05:09:41;;;;;;;2.08;1.70;;;;;;;;;;4995144;28;20424;-60
2021/10/01 05:12:06;;;;;;;5.80;1.55;;;;;;;;;;4994016;28;20038;-60
2021/10/01 05:14:31;;;;;;;1.88;1.50;;;;;;;;;;4995278;28;20263;-61
2021/10/01 05:17:00;;;;;;;6.13;1.80;;;;;;;;;;4994272;28;20113;-62
2021/10/01 05:19:25;;;;;;;2.17;1.73;;;;;;;;;;4995179;28;20030;-61
2021/10/01 05:21:50;;;;;;;3.47;1.87;;;;;;;;;;4994930;28;20126;-62
2021/10/01 05:24:15;;;;;;;2.93;1.70;;;;;;;;;;4993807;28;20372;-63
2021/10/01 05:26:44;;;;;;;1.98;1.58;;;;;;;;;;5013540;28;20389;-61
2021/10/01 05:29:09;;;;;;;2.65;1.70;;;;;;;;;;5026018;28;20120;-63
2021/10/01 05:31:36;;;;;;;6.43;2.08;;;;;;;;;;4993432;28;20053;-63
2021/10/01 05:34:01;;;;;;;4.03;1.73;;;;;;;;;;4993738;28;20010;-62
2021/10/01 05:36:30;;;;;;;4.53;2.33;;;;;;;;;;4994784;28;20030;-62
2021/10/01 05:38:56;;;;;;;3.50;1.63;;;;;;;;;;4993368;28;20270;-62
2021/10/01 05:41:21;;;;;;;1.98;1.73;;;;;;;;;;4993996;28;20034;-61
2021/10/01 05:43:47;;;;;;;4.68;1.73;;;;;;;;;;4994669;28;20022;-62
2021/10/01 05:46:16;;;;;;;1.92;1.73;;;;;;;;;;4994693;28;20061;-62
2021/10/01 05:48:45;;;;;;;2.38;1.70;;;;;;;;;;4994595;28;20154;-60
2021/10/01 05:51:12;;;;;;;2.05;1.55;;;;;;;;;;4994448;28;20394;-61
2021/10/01 05:53:48;;;;;;;1.98;1.60;;;;;;;;;;4994481;28;20086;-60
2021/10/01 05:56:13;;;;;;;5.68;1.73;;;;;;;;;;4994594;28;20026;-60
2021/10/01 05:58:39;;;;;;;2.97;1.85;;;;;;;;;;4994320;28;20434;-60
2021/10/01 06:01:08;;;;;;;3.00;1.80;;;;;;;;;;5009485;28;20026;-63
2021/10/01 06:03:33;;;;;;;2.35;1.90;;;;;;;;;;4994212;28;20033;-61
2021/10/01 06:06:02;;;;;;;3.63;2.00;;;;;;;;;;4994297;28;20022;-60
2021/10/01 06:08:27;;;;;;;1.70;1.60;;;;;;;;;;4994157;28;20316;-62
2021/10/01 06:10:58;;;;;;;3.95;1.65;;;;;;;;;;4994091;28;20033;-61
2021/10/01 06:13:24;;;;;;;2.88;2.00;;;;;;;;;;4993169;28;20073;-63
2021/10/01 06:15:49;;;;;;;3.42;1.98;;;;;;;;;;5009220;28;20054;-63
2021/10/01 06:18:14;;;;;;;2.65;1.80;;;;;;;;;;4993936;28;20068;-61
2021/10/01 06:20:42;;;;;;;2.85;2.25;;;;;;;;;;4993946;28;20409;-61
2021/10/01 06:23:16;;;;;;;3.28;1.85;;;;;;;;;;4993771;28;20073;-63
2021/10/01 06:25:44;;;;;;;3.80;1.83;;;;;;;;;;4993927;28;20077;-61
2021/10/01 06:28:09;;;;;;;2.40;2.00;;;;;;;;;;5009225;28;20025;-61
2021/10/01 06:30:41;;;;;;;2.67;1.85;;;;;;;;;;4997701;28;20022;-63
2021/10/01 06:33:10;;;;;;;5.07;2.07;;;;;;;;;;4993809;28;20026;-60
2021/10/01 06:35:35;;;;;;;2.53;1.95;;;;;;;;;;4993728;28;20030;-60
2021/10/01 06:38:06;;;;;;;2.55;2.00;;;;;;;;;;4993723;28;20023;-60
2021/10/01 06:40:40;;;;;;;2.80;2.08;;;;;;;;;;5008652;28;20041;-62
2021/10/01 06:43:10;;;;;;;3.85;2.30;;;;;;;;;;4992970;28;20157;-62
2021/10/01 06:45:37;;;;;;;2.70;2.20;;;;;;;;;;5008620;28;20492;-60
2021/10/01 06:50:50;;;;;;;2.40;2.00;;;;;;;;;;4993442;28;20022;-59
2021/10/01 08:21:00;;;;;;;3.53;1.90;;;;;;;;;;5014598;28;20025;-66
2021/10/01 08:23:25;;;;;;;3.55;1.80;;;;;;;;;;5015459;28;20042;-66
2021/10/01 08:25:54;;;;;;;2.87;1.80;;;;;;;;;;5030836;28;20017;-66
2021/10/01 08:28:19;;;;;;;4.03;1.80;;;;;;;;;;5015530;28;20269;-66
2021/10/01 08:30:44;;;;;;;1.75;1.60;;;;;;;;;;4997585;28;20567;-66
2021/10/01 08:33:10;;;;;;;4.33;1.70;;;;;;;;;;4996059;28;20014;-66
2021/10/01 08:35:38;;;;;;;4.63;1.92;;;;;;;;;;4995679;28;20265;-66
2021/10/01 08:38:03;;;;;;;2.80;1.27;;;;;;;;;;4995942;28;20024;-66
2021/10/01 08:40:31;;;;;;;3.90;1.50;;;;;;;;;;4995829;28;20105;-66
2021/10/01 08:42:57;;;;;;;1.73;1.35;;;;;;;;;;4996038;28;20474;-66
2021/10/01 08:45:31;;;;;;;3.97;1.80;;;;;;;;;;4995744;28;20084;-66
2021/10/01 08:47:58;;;;;;;5.15;1.60;;;;;;;;;;4995812;28;20022;-66
2021/10/01 08:50:30;;;;;;;3.15;1.70;;;;;;;;;;4994330;28;20026;-66
2021/10/01 08:53:04;;;;;;;1.73;1.60;;;;;;;;;;4994514;28;20038;-66
2021/10/01 08:55:29;;;;;;;3.83;2.05;;;;;;;;;;4995727;28;20085;-66
2021/10/01 08:57:54;;;;;;;3.03;1.60;;;;;;;;;;4995620;28;20014;-66
2021/10/01 09:00:27;;;;;;;3.05;1.60;;;;;;;;;;5010539;28;20254;-66
2021/10/01 09:02:55;;;;;;;3.25;1.45;;;;;;;;;;4995406;28;20053;-66
2021/10/01 09:05:25;;;;;;;3.15;2.00;;;;;;;;;;4994771;28;20494;-66
2021/10/01 09:07:51;;;;;;;3.00;1.70;;;;;;;;;;4995469;28;20022;-66
2021/10/01 09:10:16;;;;;;;2.47;1.90;;;;;;;;;;4995569;28;20528;-66
2021/10/01 09:12:56;;;;;;;4.40;1.80;;;;;;;;;;4995294;28;20206;-66
2021/10/01 09:15:27;;;;;;;2.30;1.30;;;;;;;;;;4995294;28;20022;-66
2021/10/01 09:17:58;;;;;;;3.45;1.63;;;;;;;;;;5010268;28;20030;-66
2021/10/01 09:20:33;;;;;;;4.70;1.90;;;;;;;;;;5010574;28;20033;-66
2021/10/01 09:23:15;;;;;;;2.55;1.40;;;;;;;;;;4993988;28;20502;-66
2021/10/01 09:25:44;;;;;;;2.05;1.58;;;;;;;;;;5010036;28;20113;-66
2021/10/01 09:28:12;;;;;;;2.63;1.48;;;;;;;;;;5010318;28;20030;-66
2021/10/01 09:30:53;;;;;;;1.85;1.63;;;;;;;;;;4998616;28;20018;-66
2021/10/01 09:33:21;;;;;;;3.50;1.65;;;;;;;;;;4994929;28;20018;-66
2021/10/01 09:35:46;;;;;;;4.05;1.77;;;;;;;;;;4994783;28;20022;-66
2021/10/01 09:38:17;;;;;;;2.42;1.80;;;;;;;;;;4994769;28;20076;-66
2021/10/01 09:40:43;;;;;;;4.13;1.67;;;;;;;;;;5009735;28;20014;-66
2021/10/01 09:43:26;;;;;;;3.22;1.52;;;;;;;;;;4994793;28;20026;-65
2021/10/01 09:46:20;;;;;;;1.88;1.20;;;;;;;;;;4994711;28;20026;-66
2021/10/01 09:48:48;;;;;;;1.60;1.45;;;;;;;;;;4993737;28;20061;-66
2021/10/01 09:51:16;;;;;;;3.22;1.60;;;;;;;;;;4993228;28;20022;-66
2021/10/01 09:53:43;;;;;;;2.60;1.88;;;;;;;;;;4994542;28;20377;-66
2021/10/01 09:56:28;;;;;;;2.75;1.35;;;;;;;;;;4994506;28;20026;-66
2021/10/01 09:59:04;;;;;;;2.33;1.55;;;;;;;;;;5009550;28;20290;-66
2021/10/01 10:01:30;;;;;;;4.32;1.70;;;;;;;;;;4994199;28;20014;-66
2021/10/01 10:03:55;;;;;;;2.22;1.60;;;;;;;;;;5009478;28;20026;-66
2021/10/01 10:06:20;;;;;;;3.90;1.63;;;;;;;;;;4994306;28;20433;-66
2021/10/01 10:08:46;;;;;;;4.10;1.90;;;;;;;;;;4994150;28;20298;-66
2021/10/01 10:11:15;;;;;;;2.85;1.80;;;;;;;;;;4994107;28;20274;-66
2021/10/01 10:13:46;;;;;;;2.72;1.70;;;;;;;;;;5009182;28;20026;-66
2021/10/01 10:16:12;;;;;;;3.63;1.80;;;;;;;;;;4993966;28;20094;-66
2021/10/01 10:18:40;;;;;;;5.28;1.83;;;;;;;;;;4993060;28;20097;-66
2021/10/01 10:21:05;;;;;;;1.70;1.42;;;;;;;;;;4993893;28;20053;-66
2021/10/01 10:23:37;;;;;;;3.72;1.60;;;;;;;;;;4993960;28;20090;-64
2021/10/01 10:26:08;;;;;;;3.13;1.80;;;;;;;;;;4993808;28;20033;-63
2021/10/01 10:28:34;;;;;;;3.80;1.60;;;;;;;;;;5012094;28;20389;-63
2021/10/01 10:31:00;;;;;;;3.20;1.50;;;;;;;;;;4993343;28;20536;-63
2021/10/01 10:33:43;;;;;;;4.85;1.58;;;;;;;;;;4992623;28;20038;-63
2021/10/01 10:36:30;;;;;;;2.47;1.60;;;;;;;;;;4993796;28;20377;-63
2021/10/01 10:39:15;;;;;;;2.83;1.98;;;;;;;;;;5008625;28;20053;-63
2021/10/01 10:41:59;;;;;;;3.33;2.00;;;;;;;;;;4993753;28;20105;-63
2021/10/01 10:44:38;;;;;;;3.88;2.20;;;;;;;;;;5008779;28;20018;-63
2021/10/01 10:47:06;;;;;;;3.35;2.15;;;;;;;;;;4994089;28;20428;-63
2021/10/01 10:49:34;;;;;;;3.42;2.20;;;;;;;;;;4993474;28;20030;-63
2021/10/01 10:55:10;;;;;;;5.80;2.53;;;;;;;;;;4996256;28;20121;-63
2021/10/01 10:57:37;;;;;;;3.55;2.20;;;;;;;;;;4993452;28;20026;-63
2021/10/01 11:00:22;;;;;;;4.13;2.22;;;;;;;;;;4993357;28;20026;-63
2021/10/01 11:02:47;;;;;;;5.80;2.10;;;;;;;;;;4993428;28;20402;-63
2021/10/01 11:05:31;;;;;;;2.40;2.00;;;;;;;;;;4993248;28;20037;-63
2021/10/01 11:08:03;;;;;;;3.58;1.77;;;;;;;;;;4991902;28;20757;-63
2021/10/01 11:10:34;;;;;;;4.85;2.00;;;;;;;;;;4993264;28;20536;-63
2021/10/01 11:13:21;;;;;;;4.80;2.22;;;;;;;;;;5008217;28;20482;-64
2021/10/01 11:18:43;;;;;;;4.55;1.95;;;;;;;;;;4993316;28;20620;-63
2021/10/01 11:21:36;;;;;;;3.72;1.90;;;;;;;;;;4993130;28;20026;-63
2021/10/01 11:24:01;;;;;;;6.30;1.95;;;;;;;;;;4992653;28;20053;-63
2021/10/01 11:26:43;;;;;;;4.68;1.92;;;;;;;;;;4994320;28;20433;-63
2021/10/01 11:29:47;;;;;;;2.95;1.90;;;;;;;;;;5015040;28;20032;-63
2021/10/01 11:32:19;;;;;;;3.28;1.65;;;;;;;;;;4959691;28;20035;-64
2021/10/01 11:34:49;;;;;;;3.42;1.90;;;;;;;;;;4951751;29;20073;-63
2021/10/01 11:37:30;;;;;;;2.47;1.60;;;;;;;;;;4935833;29;20122;-63
2021/10/01 11:40:14;;;;;;;2.25;1.70;;;;;;;;;;4951951;29;20517;-63
2021/10/01 11:42:56;;;;;;;1.90;1.42;;;;;;;;;;4951945;29;20058;-63
2021/10/01 11:45:35;;;;;;;1.98;1.52;;;;;;;;;;4951940;28;20030;-63
2021/10/01 11:48:11;;;;;;;2.95;1.77;;;;;;;;;;4952173;28;20065;-63
2021/10/01 11:50:46;;;;;;;3.10;1.70;;;;;;;;;;4935902;29;20644;-63
2021/10/01 11:53:27;;;;;;;3.40;1.92;;;;;;;;;;4951969;29;20102;-63
2021/10/01 11:56:03;;;;;;;2.95;1.45;;;;;;;;;;4952033;29;20047;-63
2021/10/01 11:58:29;;;;;;;1.92;1.70;;;;;;;;;;4951946;29;20019;-63
2021/10/01 12:00:55;;;;;;;3.60;1.40;;;;;;;;;;4951965;29;20038;-63
2021/10/01 12:03:21;;;;;;;2.40;1.60;;;;;;;;;;4978705;28;20064;-63
2021/10/01 12:05:50;;;;;;;2.13;1.48;;;;;;;;;;5007964;28;20054;-63
2021/10/01 12:08:16;;;;;;;2.58;1.70;;;;;;;;;;4991273;28;20022;-63
2021/10/01 12:10:48;;;;;;;5.95;1.70;;;;;;;;;;4992486;28;20061;-63
2021/10/01 12:13:16;;;;;;;1.98;1.77;;;;;;;;;;4992625;28;20019;-63
2021/10/01 12:15:55;;;;;;;2.58;1.50;;;;;;;;;;5007539;28;20026;-63
2021/10/01 12:18:41;;;;;;;3.55;1.92;;;;;;;;;;4992637;28;20081;-63
2021/10/01 12:21:08;;;;;;;3.25;2.10;;;;;;;;;;4992227;28;20038;-63
2021/10/01 12:23:37;;;;;;;3.88;2.00;;;;;;;;;;5007441;28;20469;-63
2021/10/01 12:26:15;;;;;;;3.67;2.10;;;;;;;;;;4992392;28;20031;-63
2021/10/01 12:28:41;;;;;;;2.22;1.70;;;;;;;;;;5026649;28;20433;-63
2021/10/01 12:31:07;;;;;;;3.80;1.83;;;;;;;;;;5011883;28;20105;-63
2021/10/01 12:33:32;;;;;;;5.95;2.28;;;;;;;;;;5011913;28;20049;-63
2021/10/01 12:35:58;;;;;;;4.32;1.85;;;;;;;;;;5027314;28;20465;-63
2021/10/01 12:38:26;;;;;;;5.22;1.90;;;;;;;;;;5012064;28;20029;-63
2021/10/01 12:41:09;;;;;;;4.25;1.90;;;;;;;;;;5028226;28;20049;-63
2021/10/01 12:43:41;;;;;;;3.13;2.03;;;;;;;;;;5030691;28;20014;-63
2021/10/01 12:46:08;;;;;;;7.97;2.35;;;;;;;;;;5014257;28;20520;-63
2021/10/01 12:48:34;;;;;;;2.92;2.10;;;;;;;;;;5015331;28;20519;-63
2021/10/01 12:50:59;;;;;;;7.00;2.20;;;;;;;;;;5015233;28;20049;-63
2021/10/01 12:53:24;;;;;;;4.07;2.67;;;;;;;;;;5015184;28;20029;-63
2021/10/01 12:55:49;;;;;;;5.60;2.20;;;;;;;;;;5013963;28;20340;-62
2021/10/01 12:58:20;;;;;;;6.70;2.10;;;;;;;;;;5013825;28;20025;-63
2021/10/01 13:00:46;;;;;;;3.80;1.92;;;;;;;;;;5030309;28;20037;-63
2021/10/01 13:03:11;;;;;;;2.60;1.85;;;;;;;;;;5015081;28;20493;-63
2021/10/01 13:05:38;;;;;;;6.20;2.28;;;;;;;;;;5015140;28;20477;-63
2021/10/01 13:08:03;;;;;;;5.43;2.60;;;;;;;;;;5014953;28;20022;-63
2021/10/01 13:10:31;;;;;;;4.27;2.03;;;;;;;;;;5014895;28;20098;-63
2021/10/01 13:12:57;;;;;;;4.00;2.28;;;;;;;;;;5029933;28;20032;-62
2021/10/01 13:15:22;;;;;;;4.97;2.70;;;;;;;;;;5014786;28;20096;-63
2021/10/01 13:18:06;;;;;;;4.30;2.40;;;;;;;;;;5030180;28;20030;-63
2021/10/01 13:20:32;;;;;;;5.00;2.58;;;;;;;;;;5045399;22;20319;-61
2021/10/01 13:23:02;;;;;;;3.28;2.42;;;;;;;;;;5033804;28;20087;-62
2021/10/01 13:25:30;;;;;;;4.45;2.28;;;;;;;;;;5034199;28;20028;-62
2021/10/01 13:27:56;;;;;;;6.47;2.70;;;;;;;;;;5033507;28;20036;-62
2021/10/01 13:30:21;;;;;;;6.10;2.42;;;;;;;;;;5039140;28;20406;-62
2021/10/01 13:32:47;;;;;;;3.70;2.20;;;;;;;;;;5054462;28;20021;-62
2021/10/01 13:35:14;;;;;;;4.35;2.28;;;;;;;;;;5054464;28;20456;-62
2021/10/01 13:37:39;;;;;;;5.00;2.38;;;;;;;;;;5054178;28;20029;-62
2021/10/01 13:40:05;;;;;;;4.30;2.33;;;;;;;;;;5045859;28;20028;-59
2021/10/01 13:42:30;;;;;;;4.97;2.75;;;;;;;;;;5051644;28;20263;-61
2021/10/01 13:44:55;;;;;;;5.50;2.63;;;;;;;;;;5049033;28;20021;-62
2021/10/01 13:47:20;;;;;;;4.83;2.40;;;;;;;;;;5048785;28;20017;-62
2021/10/01 13:49:46;;;;;;;4.00;2.80;;;;;;;;;;5053460;28;20518;-61
2021/10/01 13:52:11;;;;;;;8.00;2.83;;;;;;;;;;5048329;28;20311;-61
2021/10/01 13:54:36;;;;;;;4.20;2.75;;;;;;;;;;5050730;28;20274;-62
2021/10/01 13:57:01;;;;;;;4.85;2.72;;;;;;;;;;5052275;28;20075;-61
2021/10/01 13:59:27;;;;;;;3.72;2.35;;;;;;;;;;5050536;28;20027;-61
2021/10/01 14:01:52;;;;;;;3.30;2.53;;;;;;;;;;5050418;28;20043;-60
2021/10/01 14:04:17;;;;;;;5.43;2.57;;;;;;;;;;5053042;28;20110;-61
2021/10/01 14:06:42;;;;;;;3.20;2.37;;;;;;;;;;5050295;28;20252;-61
2021/10/01 14:09:08;;;;;;;3.50;2.50;;;;;;;;;;5034880;28;20071;-61
2021/10/01 14:11:33;;;;;;;3.22;2.30;;;;;;;;;;5034004;28;20038;-61
2021/10/01 14:13:59;;;;;;;4.07;2.60;;;;;;;;;;5040092;28;20459;-61
2021/10/01 14:16:24;;;;;;;5.05;2.50;;;;;;;;;;5039018;28;20472;-59
2021/10/01 14:18:49;;;;;;;3.87;2.53;;;;;;;;;;5032611;28;20075;-61
2021/10/01 14:21:15;;;;;;;3.93;2.20;;;;;;;;;;5035734;28;20292;-58
2021/10/01 14:23:40;;;;;;;3.37;2.20;;;;;;;;;;5050163;28;20294;-58
2021/10/01 14:26:05;;;;;;;3.83;2.40;;;;;;;;;;5057947;28;20256;-62
2021/10/01 14:28:30;;;;;;;5.82;2.65;;;;;;;;;;5056865;28;20021;-62
2021/10/01 14:30:56;;;;;;;3.00;1.83;;;;;;;;;;5047527;28;20028;-62
2021/10/01 14:33:21;;;;;;;7.43;2.67;;;;;;;;;;5049917;28;20267;-62
2021/10/01 14:35:46;;;;;;;3.22;2.53;;;;;;;;;;5055804;28;20032;-62
2021/10/01 14:38:13;;;;;;;4.73;2.80;;;;;;;;;;5055363;28;20024;-62
2021/10/01 14:40:39;;;;;;;4.22;2.88;;;;;;;;;;5046182;28;20299;-62
2021/10/01 14:43:05;;;;;;;5.07;2.17;;;;;;;;;;5050087;28;20431;-63
2021/10/01 14:45:30;;;;;;;4.50;2.90;;;;;;;;;;5050026;28;20025;-61
2021/10/01 14:47:55;;;;;;;3.30;2.75;;;;;;;;;;5055934;28;20734;-62
2021/10/01 14:50:21;;;;;;;4.22;2.38;;;;;;;;;;5052761;28;20013;-62
2021/10/01 14:52:46;;;;;;;8.27;2.75;;;;;;;;;;5043526;28;20057;-63
2021/10/01 14:55:11;;;;;;;5.40;2.35;;;;;;;;;;5034098;28;20017;-63
2021/10/01 14:57:38;;;;;;;3.33;2.38;;;;;;;;;;5063203;28;20018;-62
2021/10/01 15:00:04;;;;;;;5.25;2.40;;;;;;;;;;5052156;28;20036;-61
2021/10/01 15:02:29;;;;;;;3.60;2.38;;;;;;;;;;5043436;28;20064;-62
2021/10/01 15:04:54;;;;;;;4.63;2.30;;;;;;;;;;5049462;28;20045;-61
2021/10/01 15:07:20;;;;;;;4.63;2.37;;;;;;;;;;5053397;28;20305;-61
2021/10/01 15:09:45;;;;;;;5.20;2.30;;;;;;;;;;5041345;28;20264;-62
2021/10/01 15:12:10;;;;;;;4.28;2.53;;;;;;;;;;5044523;28;20075;-61
2021/10/01 15:14:36;;;;;;;6.75;2.83;;;;;;;;;;5050147;28;20044;-62
2021/10/01 15:17:01;;;;;;;4.30;2.58;;;;;;;;;;5053046;28;20027;-62
2021/10/01 15:19:27;;;;;;;4.20;2.50;;;;;;;;;;5052897;28;20021;-62
2021/10/01 15:21:52;;;;;;;3.37;2.47;;;;;;;;;;5051324;28;20457;-62
2021/10/01 15:24:17;;;;;;;3.67;2.67;;;;;;;;;;5051619;28;20263;-62
2021/10/01 15:26:42;;;;;;;4.50;2.55;;;;;;;;;;5052825;28;20264;-62
2021/10/01 15:29:08;;;;;;;4.22;2.65;;;;;;;;;;5052854;28;20054;-61
2021/10/01 15:31:33;;;;;;;3.63;2.60;;;;;;;;;;5051403;28;20074;-62
2021/10/01 15:33:59;;;;;;;3.35;2.53;;;;;;;;;;5052531;28;20092;-62
2021/10/01 15:36:24;;;;;;;3.90;2.60;;;;;;;;;;5051444;28;20021;-62
2021/10/01 15:38:50;;;;;;;3.60;2.55;;;;;;;;;;5052880;28;20021;-62
2021/10/01 15:41:15;;;;;;;8.27;3.40;;;;;;;;;;5052670;28;20020;-62
2021/10/01 15:43:41;;;;;;;4.77;2.70;;;;;;;;;;5051606;28;20083;-62
2021/10/01 15:46:06;;;;;;;3.97;2.78;;;;;;;;;;5052614;28;20264;-62
2021/10/01 15:48:32;;;;;;;4.32;2.53;;;;;;;;;;5052720;28;20029;-62
2021/10/01 15:50:59;;;;;;;5.25;2.38;;;;;;;;;;5052592;28;20032;-61
2021/10/01 15:53:24;;;;;;;3.97;2.83;;;;;;;;;;5052726;28;20017;-61
2021/10/01 15:55:50;;;;;;;3.35;2.42;;;;;;;;;;5042269;28;20101;-62
2021/10/01 15:58:15;;;;;;;4.75;2.47;;;;;;;;;;5033182;28;20072;-62
2021/10/01 16:00:42;;;;;;;3.40;2.53;;;;;;;;;;5050967;28;20491;-62
2021/10/01 16:03:08;;;;;;;4.47;2.40;;;;;;;;;;5052331;28;20730;-62
2021/10/01 16:05:34;;;;;;;3.10;2.67;;;;;;;;;;5042011;28;20047;-62
2021/10/01 16:07:59;;;;;;;3.63;2.38;;;;;;;;;;5050049;28;20411;-62
2021/10/01 16:10:24;;;;;;;3.10;2.43;;;;;;;;;;5052176;28;20013;-62
2021/10/01 16:12:51;;;;;;;5.22;2.25;;;;;;;;;;5052244;28;20315;-62
2021/10/01 16:15:17;;;;;;;3.78;2.22;;;;;;;;;;5052725;28;20024;-62
2021/10/01 16:17:42;;;;;;;4.18;2.50;;;;;;;;;;5056131;28;20380;-62
2021/10/01 16:20:16;;;;;;;4.00;2.30;;;;;;;;;;5055827;28;20017;-61
2021/10/01 16:22:44;;;;;;;3.10;2.17;;;;;;;;;;5055936;28;20141;-61
2021/10/01 16:25:10;;;;;;;4.00;2.35;;;;;;;;;;5055955;28;20024;-61
2021/10/01 16:27:35;;;;;;;3.72;2.30;;;;;;;;;;5055946;28;20377;-61
2021/10/01 16:30:00;;;;;;;2.70;1.80;;;;;;;;;;5055700;28;20025;-62
2021/10/01 16:32:27;;;;;;;3.20;2.20;;;;;;;;;;5055762;28;20384;-62
2021/10/01 16:34:54;;;;;;;3.20;2.30;;;;;;;;;;5055902;28;20063;-62